sensor_id;sensor_type;location;lat;lon;timestamp;temperature;humidity
3678;DHT22;1855;50.934;6.958;2023-02-21T00:02:32;8.10;99.90
3678;DHT22;1855;50.934;6.958;2023-02-21T00:05:16;8.10;99.90
3678;DHT22;1855;50.934;6.958;2023-02-21T00:08:02;8.10;99.90
3678;DHT22;1855;50.934;6.958;2023-02-21T00:10:47;8.00;99.90
3678;DHT22;1855;50.934;6.958;2023-02-21T00:13:34;8.00;99.90
3678;DHT22;1855;50.934;6.958;2023-02-21T00:16:19;8.00;99.90
3678;DHT22;1855;50.934;6.958;2023-02-21T00:19:04;8.00;99.90
3678;DHT22;1855;50.934;6.958;2023-02-21T00:21:48;8.00;99.90
3678;DHT22;1855;50.934;6.958;2023-02-21T00:24:34;8.00;99.90
3678;DHT22;1855;50.934;6.958;2023-02-21T00:27:18;8.10;99.90
3678;DHT22;1855;50.934;6.958;2023-02-21T00:30:03;8.10;99.90
3678;DHT22;1855;50.934;6.958;2023-02-21T00:32:47;8.10;99.90
3678;DHT22;1855;50.934;6.958;2023-02-21T00:35:31;8.20;99.90
3678;DHT22;1855;50.934;6.958;2023-02-21T00:38:15;8.20;99.90
3678;DHT22;1855;50.934;6.958;2023-02-21T00:41:01;8.30;99.90
3678;DHT22;1855;50.934;6.958;2023-02-21T00:43:45;8.30;99.90
3678;DHT22;1855;50.934;6.958;2023-02-21T00:46:29;8.30;99.90
3678;DHT22;1855;50.934;6.958;2023-02-21T00:49:14;8.30;99.90
3678;DHT22;1855;50.934;6.958;2023-02-21T00:51:58;8.30;99.90
3678;DHT22;1855;50.934;6.958;2023-02-21T00:54:42;8.30;99.90
3678;DHT22;1855;50.934;6.958;2023-02-21T00:57:28;8.30;99.90
3678;DHT22;1855;50.934;6.958;2023-02-21T01:00:16;8.40;99.90
3678;DHT22;1855;50.934;6.958;2023-02-21T01:03:00;8.40;99.90
3678;DHT22;1855;50.934;6.958;2023-02-21T01:05:45;8.40;99.90
3678;DHT22;1855;50.934;6.958;2023-02-21T01:08:29;8.30;99.90
3678;DHT22;1855;50.934;6.958;2023-02-21T01:11:14;8.30;99.90
3678;DHT22;1855;50.934;6.958;2023-02-21T01:14:00;8.30;99.90
3678;DHT22;1855;50.934;6.958;2023-02-21T01:16:44;8.30;99.90
3678;DHT22;1855;50.934;6.958;2023-02-21T01:19:28;8.40;99.90
3678;DHT22;1855;50.934;6.958;2023-02-21T01:22:12;8.40;99.90
3678;DHT22;1855;50.934;6.958;2023-02-21T01:24:56;8.40;99.90
3678;DHT22;1855;50.934;6.958;2023-02-21T01:27:40;8.40;99.90
3678;DHT22;1855;50.934;6.958;2023-02-21T01:30:26;8.30;99.90
3678;DHT22;1855;50.934;6.958;2023-02-21T01:33:10;8.40;99.90
3678;DHT22;1855;50.934;6.958;2023-02-21T01:35:54;8.40;99.90
3678;DHT22;1855;50.934;6.958;2023-02-21T01:38:38;8.40;99.90
3678;DHT22;1855;50.934;6.958;2023-02-21T01:41:23;8.40;99.90
3678;DHT22;1855;50.934;6.958;2023-02-21T01:44:28;8.40;99.90
3678;DHT22;1855;50.934;6.958;2023-02-21T01:47:16;8.40;99.90
3678;DHT22;1855;50.934;6.958;2023-02-21T01:50:02;8.40;99.90
3678;DHT22;1855;50.934;6.958;2023-02-21T01:52:48;8.40;99.90
3678;DHT22;1855;50.934;6.958;2023-02-21T01:55:33;8.50;99.90
3678;DHT22;1855;50.934;6.958;2023-02-21T01:58:20;8.50;99.90
3678;DHT22;1855;50.934;6.958;2023-02-21T02:01:07;8.50;99.90
3678;DHT22;1855;50.934;6.958;2023-02-21T02:03:54;8.50;99.90
3678;DHT22;1855;50.934;6.958;2023-02-21T02:06:39;8.50;99.90
3678;DHT22;1855;50.934;6.958;2023-02-21T02:09:24;8.50;99.90
3678;DHT22;1855;50.934;6.958;2023-02-21T02:12:20;8.50;99.90
3678;DHT22;1855;50.934;6.958;2023-02-21T02:18:02;8.50;99.90
3678;DHT22;1855;50.934;6.958;2023-02-21T02:24:01;8.40;99.90
3678;DHT22;1855;50.934;6.958;2023-02-21T02:29:56;8.40;99.90
3678;DHT22;1855;50.934;6.958;2023-02-21T02:32:50;8.40;99.90
3678;DHT22;1855;50.934;6.958;2023-02-21T02:35:24;8.40;99.90
3678;DHT22;1855;50.934;6.958;2023-02-21T02:37:56;8.40;99.90
3678;DHT22;1855;50.934;6.958;2023-02-21T02:40:28;8.40;99.90
3678;DHT22;1855;50.934;6.958;2023-02-21T02:43:03;8.40;99.90
3678;DHT22;1855;50.934;6.958;2023-02-21T02:45:38;8.40;99.90
3678;DHT22;1855;50.934;6.958;2023-02-21T02:48:11;8.40;99.90
3678;DHT22;1855;50.934;6.958;2023-02-21T02:50:41;8.30;99.90
3678;DHT22;1855;50.934;6.958;2023-02-21T02:53:11;8.30;99.90
3678;DHT22;1855;50.934;6.958;2023-02-21T02:55:42;8.30;99.90
3678;DHT22;1855;50.934;6.958;2023-02-21T02:58:11;8.30;99.90
3678;DHT22;1855;50.934;6.958;2023-02-21T03:00:40;8.30;99.90
3678;DHT22;1855;50.934;6.958;2023-02-21T03:03:51;8.30;99.90
3678;DHT22;1855;50.934;6.958;2023-02-21T03:06:32;8.30;99.90
3678;DHT22;1855;50.934;6.958;2023-02-21T03:09:08;8.20;99.90
3678;DHT22;1855;50.934;6.958;2023-02-21T03:11:44;8.30;99.90
3678;DHT22;1855;50.934;6.958;2023-02-21T03:14:15;8.30;99.90
3678;DHT22;1855;50.934;6.958;2023-02-21T03:16:47;8.30;99.90
3678;DHT22;1855;50.934;6.958;2023-02-21T03:19:17;8.30;99.90
3678;DHT22;1855;50.934;6.958;2023-02-21T03:21:50;8.30;99.90
3678;DHT22;1855;50.934;6.958;2023-02-21T03:24:18;8.30;99.90
3678;DHT22;1855;50.934;6.958;2023-02-21T03:26:48;8.30;99.90
3678;DHT22;1855;50.934;6.958;2023-02-21T03:29:18;8.30;99.90
3678;DHT22;1855;50.934;6.958;2023-02-21T03:31:48;8.30;99.90
3678;DHT22;1855;50.934;6.958;2023-02-21T03:34:16;8.30;99.90
3678;DHT22;1855;50.934;6.958;2023-02-21T03:36:43;8.30;99.90
3678;DHT22;1855;50.934;6.958;2023-02-21T03:39:12;8.30;99.90
3678;DHT22;1855;50.934;6.958;2023-02-21T03:41:39;8.30;99.90
3678;DHT22;1855;50.934;6.958;2023-02-21T03:44:05;8.20;99.90
3678;DHT22;1855;50.934;6.958;2023-02-21T03:46:33;8.20;99.90
3678;DHT22;1855;50.934;6.958;2023-02-21T03:49:00;8.20;99.90
3678;DHT22;1855;50.934;6.958;2023-02-21T03:51:27;8.20;99.90
3678;DHT22;1855;50.934;6.958;2023-02-21T03:53:53;8.20;99.90
3678;DHT22;1855;50.934;6.958;2023-02-21T03:56:21;8.20;99.90
3678;DHT22;1855;50.934;6.958;2023-02-21T03:58:48;8.20;99.90
3678;DHT22;1855;50.934;6.958;2023-02-21T04:01:15;8.20;99.90
3678;DHT22;1855;50.934;6.958;2023-02-21T04:03:41;8.20;99.90
3678;DHT22;1855;50.934;6.958;2023-02-21T04:06:08;8.20;99.90
3678;DHT22;1855;50.934;6.958;2023-02-21T04:08:35;8.20;99.90
3678;DHT22;1855;50.934;6.958;2023-02-21T04:11:02;8.20;99.90
3678;DHT22;1855;50.934;6.958;2023-02-21T04:13:30;8.20;99.90
3678;DHT22;1855;50.934;6.958;2023-02-21T04:15:57;8.20;99.90
3678;DHT22;1855;50.934;6.958;2023-02-21T04:18:24;8.20;99.90
3678;DHT22;1855;50.934;6.958;2023-02-21T04:20:50;8.20;99.90
3678;DHT22;1855;50.934;6.958;2023-02-21T04:23:18;8.20;99.90
3678;DHT22;1855;50.934;6.958;2023-02-21T04:25:45;8.20;99.90
3678;DHT22;1855;50.934;6.958;2023-02-21T04:28:11;8.20;99.90
3678;DHT22;1855;50.934;6.958;2023-02-21T04:30:40;8.20;99.90
3678;DHT22;1855;50.934;6.958;2023-02-21T04:33:06;8.20;99.90
3678;DHT22;1855;50.934;6.958;2023-02-21T04:35:33;8.20;99.90
3678;DHT22;1855;50.934;6.958;2023-02-21T04:38:00;8.20;99.90
3678;DHT22;1855;50.934;6.958;2023-02-21T04:40:26;8.20;99.90
3678;DHT22;1855;50.934;6.958;2023-02-21T04:42:53;8.20;99.90
3678;DHT22;1855;50.934;6.958;2023-02-21T04:45:20;8.20;99.90
3678;DHT22;1855;50.934;6.958;2023-02-21T04:47:48;8.20;99.90
3678;DHT22;1855;50.934;6.958;2023-02-21T04:50:15;8.20;99.90
3678;DHT22;1855;50.934;6.958;2023-02-21T04:52:42;8.20;99.90
3678;DHT22;1855;50.934;6.958;2023-02-21T04:55:08;8.20;99.90
3678;DHT22;1855;50.934;6.958;2023-02-21T04:57:35;8.20;99.90
3678;DHT22;1855;50.934;6.958;2023-02-21T05:00:03;8.30;99.90
3678;DHT22;1855;50.934;6.958;2023-02-21T05:02:31;8.30;99.90
3678;DHT22;1855;50.934;6.958;2023-02-21T05:04:59;8.30;99.90
3678;DHT22;1855;50.934;6.958;2023-02-21T05:07:26;8.20;99.90
3678;DHT22;1855;50.934;6.958;2023-02-21T05:09:53;8.20;99.90
3678;DHT22;1855;50.934;6.958;2023-02-21T05:12:20;8.20;99.90
3678;DHT22;1855;50.934;6.958;2023-02-21T05:14:46;8.20;99.90
3678;DHT22;1855;50.934;6.958;2023-02-21T05:17:13;8.20;99.90
3678;DHT22;1855;50.934;6.958;2023-02-21T05:19:40;8.20;99.90
3678;DHT22;1855;50.934;6.958;2023-02-21T05:22:08;8.20;99.90
3678;DHT22;1855;50.934;6.958;2023-02-21T05:24:40;8.20;99.90
3678;DHT22;1855;50.934;6.958;2023-02-21T05:27:08;8.20;99.90
3678;DHT22;1855;50.934;6.958;2023-02-21T05:29:35;8.20;99.90
3678;DHT22;1855;50.934;6.958;2023-02-21T05:32:02;8.20;99.90
3678;DHT22;1855;50.934;6.958;2023-02-21T05:34:29;8.20;99.90
3678;DHT22;1855;50.934;6.958;2023-02-21T05:36:56;8.20;99.90
3678;DHT22;1855;50.934;6.958;2023-02-21T05:39:24;8.20;99.90
3678;DHT22;1855;50.934;6.958;2023-02-21T05:41:51;8.20;99.90
3678;DHT22;1855;50.934;6.958;2023-02-21T05:44:18;8.20;99.90
3678;DHT22;1855;50.934;6.958;2023-02-21T05:46:45;8.20;99.90
3678;DHT22;1855;50.934;6.958;2023-02-21T05:49:12;8.20;99.90
3678;DHT22;1855;50.934;6.958;2023-02-21T05:51:42;8.20;99.90
3678;DHT22;1855;50.934;6.958;2023-02-21T05:54:12;8.20;99.90
3678;DHT22;1855;50.934;6.958;2023-02-21T05:56:41;8.20;99.90
3678;DHT22;1855;50.934;6.958;2023-02-21T05:59:09;8.20;99.90
3678;DHT22;1855;50.934;6.958;2023-02-21T06:01:36;8.20;99.90
3678;DHT22;1855;50.934;6.958;2023-02-21T06:04:03;8.10;99.90
3678;DHT22;1855;50.934;6.958;2023-02-21T06:06:32;8.20;99.90
3678;DHT22;1855;50.934;6.958;2023-02-21T06:08:59;8.10;99.90
3678;DHT22;1855;50.934;6.958;2023-02-21T06:11:27;8.20;99.90
3678;DHT22;1855;50.934;6.958;2023-02-21T06:13:58;8.20;99.90
3678;DHT22;1855;50.934;6.958;2023-02-21T06:16:25;8.10;99.90
3678;DHT22;1855;50.934;6.958;2023-02-21T06:18:55;8.10;99.90
3678;DHT22;1855;50.934;6.958;2023-02-21T06:21:22;8.20;99.90
3678;DHT22;1855;50.934;6.958;2023-02-21T06:23:49;8.10;99.90
3678;DHT22;1855;50.934;6.958;2023-02-21T06:26:17;8.10;99.90
3678;DHT22;1855;50.934;6.958;2023-02-21T06:28:44;8.10;99.90
3678;DHT22;1855;50.934;6.958;2023-02-21T06:31:12;8.10;99.90
3678;DHT22;1855;50.934;6.958;2023-02-21T06:33:39;8.00;99.90
3678;DHT22;1855;50.934;6.958;2023-02-21T06:36:09;7.90;99.90
3678;DHT22;1855;50.934;6.958;2023-02-21T06:38:37;8.00;99.90
3678;DHT22;1855;50.934;6.958;2023-02-21T06:41:05;8.00;99.90
3678;DHT22;1855;50.934;6.958;2023-02-21T06:43:32;8.00;99.90
3678;DHT22;1855;50.934;6.958;2023-02-21T06:45:58;8.00;99.90
3678;DHT22;1855;50.934;6.958;2023-02-21T06:48:26;8.10;99.90
3678;DHT22;1855;50.934;6.958;2023-02-21T06:50:53;8.10;99.90
3678;DHT22;1855;50.934;6.958;2023-02-21T06:53:20;8.10;99.90
3678;DHT22;1855;50.934;6.958;2023-02-21T06:55:47;8.10;99.90
3678;DHT22;1855;50.934;6.958;2023-02-21T06:58:13;8.10;99.90
3678;DHT22;1855;50.934;6.958;2023-02-21T07:00:40;8.00;99.90
3678;DHT22;1855;50.934;6.958;2023-02-21T07:03:07;8.10;99.90
3678;DHT22;1855;50.934;6.958;2023-02-21T07:05:35;8.10;99.90
3678;DHT22;1855;50.934;6.958;2023-02-21T07:08:03;8.10;99.90
3678;DHT22;1855;50.934;6.958;2023-02-21T07:10:30;8.10;99.90
3678;DHT22;1855;50.934;6.958;2023-02-21T07:12:57;8.00;99.90
3678;DHT22;1855;50.934;6.958;2023-02-21T07:15:24;8.00;99.90
3678;DHT22;1855;50.934;6.958;2023-02-21T07:17:51;8.00;99.90
3678;DHT22;1855;50.934;6.958;2023-02-21T07:20:18;8.00;99.90
3678;DHT22;1855;50.934;6.958;2023-02-21T07:22:46;8.00;99.90
3678;DHT22;1855;50.934;6.958;2023-02-21T07:25:13;7.90;99.90
3678;DHT22;1855;50.934;6.958;2023-02-21T07:27:41;7.90;99.90
3678;DHT22;1855;50.934;6.958;2023-02-21T07:30:08;8.00;99.90
3678;DHT22;1855;50.934;6.958;2023-02-21T07:32:35;8.00;99.90
3678;DHT22;1855;50.934;6.958;2023-02-21T07:35:02;8.10;99.90
3678;DHT22;1855;50.934;6.958;2023-02-21T07:37:29;8.10;99.90
3678;DHT22;1855;50.934;6.958;2023-02-21T07:39:57;8.10;99.90
3678;DHT22;1855;50.934;6.958;2023-02-21T07:42:24;8.10;99.90
3678;DHT22;1855;50.934;6.958;2023-02-21T07:44:54;8.10;99.90
3678;DHT22;1855;50.934;6.958;2023-02-21T07:47:21;8.00;99.90
3678;DHT22;1855;50.934;6.958;2023-02-21T07:49:48;8.00;99.90
3678;DHT22;1855;50.934;6.958;2023-02-21T07:52:16;8.10;99.90
3678;DHT22;1855;50.934;6.958;2023-02-21T07:54:43;8.10;99.90
3678;DHT22;1855;50.934;6.958;2023-02-21T07:57:12;8.10;99.90
3678;DHT22;1855;50.934;6.958;2023-02-21T07:59:38;8.10;99.90
3678;DHT22;1855;50.934;6.958;2023-02-21T08:02:05;8.10;99.90
3678;DHT22;1855;50.934;6.958;2023-02-21T08:04:32;8.00;99.90
3678;DHT22;1855;50.934;6.958;2023-02-21T08:07:00;8.10;99.90
3678;DHT22;1855;50.934;6.958;2023-02-21T08:09:27;8.10;99.90
3678;DHT22;1855;50.934;6.958;2023-02-21T08:11:54;8.10;99.90
3678;DHT22;1855;50.934;6.958;2023-02-21T08:14:22;8.10;99.90
3678;DHT22;1855;50.934;6.958;2023-02-21T08:16:49;8.10;99.90
3678;DHT22;1855;50.934;6.958;2023-02-21T08:19:16;8.20;99.90
3678;DHT22;1855;50.934;6.958;2023-02-21T08:21:44;8.20;99.90
3678;DHT22;1855;50.934;6.958;2023-02-21T08:24:11;8.20;99.90
3678;DHT22;1855;50.934;6.958;2023-02-21T08:26:39;8.20;99.90
3678;DHT22;1855;50.934;6.958;2023-02-21T08:29:06;8.30;99.90
3678;DHT22;1855;50.934;6.958;2023-02-21T08:31:35;8.30;99.90
3678;DHT22;1855;50.934;6.958;2023-02-21T08:34:05;8.40;99.90
3678;DHT22;1855;50.934;6.958;2023-02-21T08:36:34;8.40;99.90
3678;DHT22;1855;50.934;6.958;2023-02-21T08:39:01;8.50;99.90
3678;DHT22;1855;50.934;6.958;2023-02-21T08:41:34;8.50;99.90
3678;DHT22;1855;50.934;6.958;2023-02-21T08:44:02;8.40;99.90
3678;DHT22;1855;50.934;6.958;2023-02-21T08:46:29;8.50;99.90
3678;DHT22;1855;50.934;6.958;2023-02-21T08:48:57;8.50;99.90
3678;DHT22;1855;50.934;6.958;2023-02-21T08:51:24;8.50;99.90
3678;DHT22;1855;50.934;6.958;2023-02-21T08:53:51;8.60;99.90
3678;DHT22;1855;50.934;6.958;2023-02-21T08:56:18;8.50;99.90
3678;DHT22;1855;50.934;6.958;2023-02-21T08:58:45;8.50;99.90
3678;DHT22;1855;50.934;6.958;2023-02-21T09:01:12;8.50;99.90
3678;DHT22;1855;50.934;6.958;2023-02-21T09:03:39;8.50;99.90
3678;DHT22;1855;50.934;6.958;2023-02-21T09:06:08;8.60;99.90
3678;DHT22;1855;50.934;6.958;2023-02-21T09:08:35;8.50;99.90
3678;DHT22;1855;50.934;6.958;2023-02-21T09:11:03;8.50;99.90
3678;DHT22;1855;50.934;6.958;2023-02-21T09:13:30;8.50;99.90
3678;DHT22;1855;50.934;6.958;2023-02-21T09:15:58;8.60;99.90
3678;DHT22;1855;50.934;6.958;2023-02-21T09:18:26;8.60;99.90
3678;DHT22;1855;50.934;6.958;2023-02-21T09:20:53;8.60;99.90
3678;DHT22;1855;50.934;6.958;2023-02-21T09:23:24;8.70;99.90
3678;DHT22;1855;50.934;6.958;2023-02-21T09:25:52;8.80;99.90
3678;DHT22;1855;50.934;6.958;2023-02-21T09:28:19;8.80;99.90
3678;DHT22;1855;50.934;6.958;2023-02-21T09:30:47;8.70;99.90
3678;DHT22;1855;50.934;6.958;2023-02-21T09:33:14;8.80;99.90
3678;DHT22;1855;50.934;6.958;2023-02-21T09:35:41;8.90;99.90
3678;DHT22;1855;50.934;6.958;2023-02-21T09:38:09;8.90;99.90
3678;DHT22;1855;50.934;6.958;2023-02-21T09:40:41;9.00;99.90
3678;DHT22;1855;50.934;6.958;2023-02-21T09:43:12;9.10;99.90
3678;DHT22;1855;50.934;6.958;2023-02-21T09:45:41;9.10;99.90
3678;DHT22;1855;50.934;6.958;2023-02-21T09:48:12;9.20;99.90
3678;DHT22;1855;50.934;6.958;2023-02-21T09:50:41;9.20;99.90
3678;DHT22;1855;50.934;6.958;2023-02-21T09:53:12;9.30;99.90
3678;DHT22;1855;50.934;6.958;2023-02-21T09:55:41;9.30;99.90
3678;DHT22;1855;50.934;6.958;2023-02-21T09:58:11;9.20;99.90
3678;DHT22;1855;50.934;6.958;2023-02-21T10:00:38;9.20;99.90
3678;DHT22;1855;50.934;6.958;2023-02-21T10:06:05;9.30;99.90
3678;DHT22;1855;50.934;6.958;2023-02-21T10:08:42;9.30;99.90
3678;DHT22;1855;50.934;6.958;2023-02-21T10:11:24;9.40;99.90
3678;DHT22;1855;50.934;6.958;2023-02-21T10:14:03;9.40;99.90
3678;DHT22;1855;50.934;6.958;2023-02-21T10:16:36;9.40;99.90
3678;DHT22;1855;50.934;6.958;2023-02-21T10:19:10;9.30;99.90
3678;DHT22;1855;50.934;6.958;2023-02-21T10:21:41;9.40;99.90
3678;DHT22;1855;50.934;6.958;2023-02-21T10:24:12;9.40;99.90
3678;DHT22;1855;50.934;6.958;2023-02-21T10:26:47;9.40;99.90
3678;DHT22;1855;50.934;6.958;2023-02-21T10:29:21;9.50;99.90
3678;DHT22;1855;50.934;6.958;2023-02-21T10:31:51;9.50;99.90
3678;DHT22;1855;50.934;6.958;2023-02-21T10:34:22;9.70;99.90
3678;DHT22;1855;50.934;6.958;2023-02-21T10:36:51;9.70;99.90
3678;DHT22;1855;50.934;6.958;2023-02-21T10:39:21;9.70;99.90
3678;DHT22;1855;50.934;6.958;2023-02-21T10:41:52;9.80;99.90
3678;DHT22;1855;50.934;6.958;2023-02-21T10:44:23;9.90;99.90
3678;DHT22;1855;50.934;6.958;2023-02-21T10:46:57;9.90;99.90
3678;DHT22;1855;50.934;6.958;2023-02-21T10:49:30;10.10;99.90
3678;DHT22;1855;50.934;6.958;2023-02-21T10:52:09;10.20;99.90
3678;DHT22;1855;50.934;6.958;2023-02-21T10:54:36;10.30;99.80
3678;DHT22;1855;50.934;6.958;2023-02-21T10:57:07;10.20;99.70
3678;DHT22;1855;50.934;6.958;2023-02-21T10:59:37;10.20;99.90
3678;DHT22;1855;50.934;6.958;2023-02-21T11:02:26;10.20;99.60
3678;DHT22;1855;50.934;6.958;2023-02-21T11:04:54;10.20;99.70
3678;DHT22;1855;50.934;6.958;2023-02-21T11:07:22;10.30;99.70
3678;DHT22;1855;50.934;6.958;2023-02-21T11:09:49;10.40;99.80
3678;DHT22;1855;50.934;6.958;2023-02-21T11:12:22;10.40;99.00
3678;DHT22;1855;50.934;6.958;2023-02-21T11:15:14;10.50;98.80
3678;DHT22;1855;50.934;6.958;2023-02-21T11:17:42;10.50;98.70
3678;DHT22;1855;50.934;6.958;2023-02-21T11:20:16;10.50;98.60
3678;DHT22;1855;50.934;6.958;2023-02-21T11:22:45;10.70;98.60
3678;DHT22;1855;50.934;6.958;2023-02-21T11:25:19;10.70;98.10
3678;DHT22;1855;50.934;6.958;2023-02-21T11:28:01;10.70;98.00
3678;DHT22;1855;50.934;6.958;2023-02-21T11:30:30;10.60;98.70
3678;DHT22;1855;50.934;6.958;2023-02-21T11:32:59;10.70;98.20
3678;DHT22;1855;50.934;6.958;2023-02-21T11:35:28;10.80;97.80
3678;DHT22;1855;50.934;6.958;2023-02-21T11:37:58;10.70;98.10
3678;DHT22;1855;50.934;6.958;2023-02-21T11:40:28;10.70;98.20
3678;DHT22;1855;50.934;6.958;2023-02-21T11:43:21;10.80;98.10
3678;DHT22;1855;50.934;6.958;2023-02-21T11:46:03;10.90;97.70
3678;DHT22;1855;50.934;6.958;2023-02-21T11:48:33;11.00;97.30
3678;DHT22;1855;50.934;6.958;2023-02-21T11:51:05;11.10;97.30
3678;DHT22;1855;50.934;6.958;2023-02-21T11:53:38;11.20;97.00
3678;DHT22;1855;50.934;6.958;2023-02-21T11:56:23;11.50;96.30
3678;DHT22;1855;50.934;6.958;2023-02-21T11:58:59;11.60;95.70
3678;DHT22;1855;50.934;6.958;2023-02-21T12:01:31;11.70;95.60
3678;DHT22;1855;50.934;6.958;2023-02-21T12:04:24;11.90;94.90
3678;DHT22;1855;50.934;6.958;2023-02-21T12:07:01;12.00;94.30
3678;DHT22;1855;50.934;6.958;2023-02-21T12:09:34;12.10;93.40
3678;DHT22;1855;50.934;6.958;2023-02-21T12:12:25;12.20;93.50
3678;DHT22;1855;50.934;6.958;2023-02-21T12:15:01;12.30;93.30
3678;DHT22;1855;50.934;6.958;2023-02-21T12:18:04;12.40;92.40
3678;DHT22;1855;50.934;6.958;2023-02-21T12:21:05;12.40;92.70
3678;DHT22;1855;50.934;6.958;2023-02-21T12:23:41;12.70;92.20
3678;DHT22;1855;50.934;6.958;2023-02-21T12:26:25;13.00;90.90
3678;DHT22;1855;50.934;6.958;2023-02-21T12:29:04;13.40;90.30
3678;DHT22;1855;50.934;6.958;2023-02-21T12:31:47;13.90;88.00
3678;DHT22;1855;50.934;6.958;2023-02-21T12:34:28;14.70;86.30
3678;DHT22;1855;50.934;6.958;2023-02-21T12:37:10;15.70;82.10
3678;DHT22;1855;50.934;6.958;2023-02-21T12:39:55;16.70;72.90
3678;DHT22;1855;50.934;6.958;2023-02-21T12:42:37;17.90;65.50
3678;DHT22;1855;50.934;6.958;2023-02-21T12:45:22;18.50;60.30
3678;DHT22;1855;50.934;6.958;2023-02-21T12:47:59;19.20;59.00
3678;DHT22;1855;50.934;6.958;2023-02-21T12:50:32;19.50;56.30
3678;DHT22;1855;50.934;6.958;2023-02-21T12:53:02;19.70;56.00
3678;DHT22;1855;50.934;6.958;2023-02-21T12:55:32;20.40;54.40
3678;DHT22;1855;50.934;6.958;2023-02-21T12:58:02;20.90;52.00
3678;DHT22;1855;50.934;6.958;2023-02-21T13:00:33;21.70;50.60
3678;DHT22;1855;50.934;6.958;2023-02-21T13:03:10;22.80;47.70
3678;DHT22;1855;50.934;6.958;2023-02-21T13:05:46;24.30;44.50
3678;DHT22;1855;50.934;6.958;2023-02-21T13:08:16;25.40;42.20
3678;DHT22;1855;50.934;6.958;2023-02-21T13:10:51;25.60;40.80
3678;DHT22;1855;50.934;6.958;2023-02-21T13:13:26;26.20;40.10
3678;DHT22;1855;50.934;6.958;2023-02-21T13:15:53;25.90;39.60
3678;DHT22;1855;50.934;6.958;2023-02-21T13:18:26;25.30;39.90
3678;DHT22;1855;50.934;6.958;2023-02-21T13:20:56;25.00;40.30
3678;DHT22;1855;50.934;6.958;2023-02-21T13:23:58;24.60;42.00
3678;DHT22;1855;50.934;6.958;2023-02-21T13:29:19;23.50;43.00
3678;DHT22;1855;50.934;6.958;2023-02-21T13:31:47;23.50;43.60
3678;DHT22;1855;50.934;6.958;2023-02-21T13:34:21;23.90;42.90
3678;DHT22;1855;50.934;6.958;2023-02-21T13:36:50;24.10;41.80
3678;DHT22;1855;50.934;6.958;2023-02-21T13:39:18;24.30;41.80
3678;DHT22;1855;50.934;6.958;2023-02-21T13:41:49;24.60;41.30
3678;DHT22;1855;50.934;6.958;2023-02-21T13:44:21;24.60;41.70
3678;DHT22;1855;50.934;6.958;2023-02-21T13:47:08;24.80;40.80
3678;DHT22;1855;50.934;6.958;2023-02-21T13:49:43;24.90;40.90
3678;DHT22;1855;50.934;6.958;2023-02-21T13:52:35;25.10;39.80
3678;DHT22;1855;50.934;6.958;2023-02-21T13:55:25;25.50;39.50
3678;DHT22;1855;50.934;6.958;2023-02-21T13:58:30;26.10;38.60
3678;DHT22;1855;50.934;6.958;2023-02-21T14:01:20;26.40;38.30
3678;DHT22;1855;50.934;6.958;2023-02-21T14:03:49;27.10;37.10
3678;DHT22;1855;50.934;6.958;2023-02-21T14:06:31;26.60;36.50
3678;DHT22;1855;50.934;6.958;2023-02-21T14:08:59;26.00;37.90
3678;DHT22;1855;50.934;6.958;2023-02-21T14:11:33;25.10;38.70
3678;DHT22;1855;50.934;6.958;2023-02-21T14:14:03;24.70;40.70
3678;DHT22;1855;50.934;6.958;2023-02-21T14:16:33;25.00;39.70
3678;DHT22;1855;50.934;6.958;2023-02-21T14:19:02;24.80;39.40
3678;DHT22;1855;50.934;6.958;2023-02-21T14:21:35;25.20;38.90
3678;DHT22;1855;50.934;6.958;2023-02-21T14:24:05;25.20;40.20
3678;DHT22;1855;50.934;6.958;2023-02-21T14:26:40;25.00;39.00
3678;DHT22;1855;50.934;6.958;2023-02-21T14:29:26;24.60;40.00
3678;DHT22;1855;50.934;6.958;2023-02-21T14:31:55;24.60;39.80
3678;DHT22;1855;50.934;6.958;2023-02-21T14:34:29;24.60;40.00
3678;DHT22;1855;50.934;6.958;2023-02-21T14:37:01;24.90;39.40
3678;DHT22;1855;50.934;6.958;2023-02-21T14:39:35;25.10;39.00
3678;DHT22;1855;50.934;6.958;2023-02-21T14:42:27;24.40;39.90
3678;DHT22;1855;50.934;6.958;2023-02-21T14:45:24;24.10;40.40
3678;DHT22;1855;50.934;6.958;2023-02-21T14:48:05;23.60;41.30
3678;DHT22;1855;50.934;6.958;2023-02-21T14:50:43;23.70;41.70
3678;DHT22;1855;50.934;6.958;2023-02-21T14:53:41;23.80;41.00
3678;DHT22;1855;50.934;6.958;2023-02-21T14:56:34;24.10;40.50
3678;DHT22;1855;50.934;6.958;2023-02-21T14:59:24;23.90;40.50
3678;DHT22;1855;50.934;6.958;2023-02-21T15:02:00;23.50;41.10
3678;DHT22;1855;50.934;6.958;2023-02-21T15:04:40;23.20;42.00
3678;DHT22;1855;50.934;6.958;2023-02-21T15:07:14;23.00;42.50
3678;DHT22;1855;50.934;6.958;2023-02-21T15:09:44;22.30;43.70
3678;DHT22;1855;50.934;6.958;2023-02-21T15:12:15;21.90;45.10
3678;DHT22;1855;50.934;6.958;2023-02-21T15:14:47;22.40;43.90
3678;DHT22;1855;50.934;6.958;2023-02-21T15:17:18;22.00;44.30
3678;DHT22;1855;50.934;6.958;2023-02-21T15:19:45;21.60;45.10
3678;DHT22;1855;50.934;6.958;2023-02-21T15:22:19;21.00;46.40
3678;DHT22;1855;50.934;6.958;2023-02-21T15:25:12;20.40;48.00
3678;DHT22;1855;50.934;6.958;2023-02-21T15:27:59;19.70;49.80
3678;DHT22;1855;50.934;6.958;2023-02-21T15:30:29;19.10;52.00
3678;DHT22;1855;50.934;6.958;2023-02-21T15:33:01;18.70;53.20
3678;DHT22;1855;50.934;6.958;2023-02-21T15:35:32;18.50;54.60
3678;DHT22;1855;50.934;6.958;2023-02-21T15:38:02;18.30;55.30
3678;DHT22;1855;50.934;6.958;2023-02-21T15:40:32;18.00;56.40
3678;DHT22;1855;50.934;6.958;2023-02-21T15:43:00;17.80;57.70
3678;DHT22;1855;50.934;6.958;2023-02-21T15:45:32;17.70;58.40
3678;DHT22;1855;50.934;6.958;2023-02-21T15:48:00;17.50;59.10
3678;DHT22;1855;50.934;6.958;2023-02-21T15:50:33;17.50;60.00
3678;DHT22;1855;50.934;6.958;2023-02-21T15:53:15;17.50;60.30
3678;DHT22;1855;50.934;6.958;2023-02-21T15:55:44;17.30;60.50
3678;DHT22;1855;50.934;6.958;2023-02-21T15:58:16;16.90;62.80
3678;DHT22;1855;50.934;6.958;2023-02-21T16:00:44;16.50;65.50
3678;DHT22;1855;50.934;6.958;2023-02-21T16:03:29;16.20;66.80
3678;DHT22;1855;50.934;6.958;2023-02-21T16:06:09;16.10;67.60
3678;DHT22;1855;50.934;6.958;2023-02-21T16:08:38;15.70;69.60
3678;DHT22;1855;50.934;6.958;2023-02-21T16:11:07;15.40;71.00
3678;DHT22;1855;50.934;6.958;2023-02-21T16:13:35;15.20;72.70
3678;DHT22;1855;50.934;6.958;2023-02-21T16:16:03;15.10;74.00
3678;DHT22;1855;50.934;6.958;2023-02-21T16:18:30;14.70;75.70
3678;DHT22;1855;50.934;6.958;2023-02-21T16:20:59;14.50;77.70
3678;DHT22;1855;50.934;6.958;2023-02-21T16:23:30;14.00;79.80
3678;DHT22;1855;50.934;6.958;2023-02-21T16:26:00;13.60;83.30
3678;DHT22;1855;50.934;6.958;2023-02-21T16:28:29;13.10;86.50
3678;DHT22;1855;50.934;6.958;2023-02-21T16:30:59;12.60;88.40
3678;DHT22;1855;50.934;6.958;2023-02-21T16:33:28;12.20;91.10
3678;DHT22;1855;50.934;6.958;2023-02-21T16:35:55;11.70;92.40
3678;DHT22;1855;50.934;6.958;2023-02-21T16:38:24;11.30;93.90
3678;DHT22;1855;50.934;6.958;2023-02-21T16:40:51;11.00;95.00
3678;DHT22;1855;50.934;6.958;2023-02-21T16:43:20;10.70;96.30
3678;DHT22;1855;50.934;6.958;2023-02-21T16:45:51;10.40;97.70
3678;DHT22;1855;50.934;6.958;2023-02-21T16:48:19;10.20;98.70
3678;DHT22;1855;50.934;6.958;2023-02-21T16:50:49;10.00;99.40
3678;DHT22;1855;50.934;6.958;2023-02-21T16:53:16;9.90;99.90
3678;DHT22;1855;50.934;6.958;2023-02-21T16:55:44;9.70;99.90
3678;DHT22;1855;50.934;6.958;2023-02-21T16:58:18;9.60;99.90
3678;DHT22;1855;50.934;6.958;2023-02-21T17:00:49;9.50;99.90
3678;DHT22;1855;50.934;6.958;2023-02-21T17:03:17;9.40;99.90
3678;DHT22;1855;50.934;6.958;2023-02-21T17:05:43;9.20;99.90
3678;DHT22;1855;50.934;6.958;2023-02-21T17:08:10;9.10;99.90